North Battleford Airport
CYQW : now visible

Aeroporto :











RITROVATECI SU...

 
LOGIN :

Iscrizione | Disclaimer

   EN    FR    IT 

 









Sommario :    VFR   VFR Marginale   IFR   IFR Intensivo   IFR Molto Intensivo
Visibilità : 
Base nubi : 
>= 8 km
>= 3000ft
5 / 8 km
1000 / 3000 ft
1500m / 5 km
500 / 1000 ft
800 / 1500m
200 / 500 ft
< 800m
< 200 ft
Simboli :   Temporali  Nebbia  Neve Forte  Precipitazioni Forti  Vento > 20 kt






- Altitudine del aeroporto : 1799 ft
- Codice IATA : YQW


CYQW - North Battleford

ULTIMO METAR :
  • 280600Z AUTO 00000KT 9SM CLR M04/M06 A2996 RMK SLP177

METARs OBSOLETI :
  • 280500Z AUTO 00000KT 9SM CLR M03/M05 A2996 RMK SLP178
  • 280400Z AUTO 30004KT 9SM CLR M02/M05 A2995 RMK SLP177

TAF TAF CYQW
Valido dal 28 a 06 ore il 28 a 18 ore UTC


280542Z 2806/2818 VRB03KT P6SM FEW120 SCT200
FM280900 VRB03KT P6SM BKN080 OVC200
FM281400 28010KT P6SM FEW100 RMK FCST BASED ON AUTO OBS. NXT FCST BY 281200Z



MetMap, La meteo Aeronautica in un colpo d'occhio ! - Copyright ORBIFLY Dicembre 2007 - Disclaimer

ORBIFLY MET'MAP TEAM :

Programmazione e sviluppo : Alexandra Zaïnal
Concezione : Baudouin d'Aumeries
Aiuto per la programmazione : Marc-Olivier Méhu
Supporto tecnico e logistico : Manuel Goepfert
Aiuto per la traduzione : Arnaldo La Scala

Contatto : metmap@orbifly.com




FONTI E CREDITI :

   NOAA       Earth
Advisory